Time;durP1;ratioP1;P1;durP2;ratioP2;P2;SDS_P1;SDS_P2;PMS_P1;PMS_P2;Temp;Humidity;BMP_temperature;BMP_pressure;BME280_temperature;BME280_humidity;BME280_pressure;Samples;Min_cycle;Max_cycle;Signal;HPM_P1;HPM_P2
2020/12/03 00:02:03;;;;;;;24.13;16.40;;;;;;;4.41;100.00;99648.81;5098972;28;20203;-31
2020/12/03 00:04:49;;;;;;;22.90;16.43;;;;;;;4.30;100.00;99637.66;5099803;28;20274;-30
2020/12/03 00:07:35;;;;;;;22.73;15.93;;;;;;;4.37;100.00;99636.00;5098339;28;20245;-30
2020/12/03 00:10:21;;;;;;;21.07;16.40;;;;;;;4.26;100.00;99635.06;5099314;28;20699;-30
2020/12/03 00:13:16;;;;;;;25.03;17.20;;;;;;;4.41;100.00;99624.91;5098587;28;20262;-31
2020/12/03 00:16:05;;;;;;;24.17;16.93;;;;;;;4.24;100.00;99624.81;5098867;28;20201;-30
2020/12/03 00:18:51;;;;;;;25.07;17.60;;;;;;;4.44;100.00;99619.81;5098793;28;20209;-30
2020/12/03 00:21:40;;;;;;;22.93;17.27;;;;;;;4.61;100.00;99614.78;5098966;28;20199;-30
2020/12/03 00:24:29;;;;;;;24.23;17.03;;;;;;;4.25;100.00;99615.44;5098250;28;20197;-31
2020/12/03 00:27:14;;;;;;;22.23;16.67;;;;;;;4.25;100.00;99616.31;5098557;28;20215;-30
2020/12/03 00:30:00;;;;;;;22.97;16.97;;;;;;;4.44;100.00;99607.88;5098694;28;20294;-31
2020/12/03 00:32:50;;;;;;;21.27;16.47;;;;;;;4.22;100.00;99610.31;5098230;28;20640;-30
2020/12/03 00:35:36;;;;;;;23.30;15.97;;;;;;;4.20;100.00;99594.09;5097496;28;20605;-31
2020/12/03 00:38:23;;;;;;;21.73;16.23;;;;;;;4.40;100.00;99592.47;5097968;28;20333;-30
2020/12/03 00:41:09;;;;;;;25.40;17.03;;;;;;;4.25;100.00;99587.28;5095900;28;20200;-30
2020/12/03 00:43:55;;;;;;;21.83;16.80;;;;;;;4.16;100.00;99577.88;5097741;28;20194;-30
2020/12/03 00:46:41;;;;;;;20.73;16.03;;;;;;;4.41;100.00;99583.94;5097917;28;20213;-31
2020/12/03 00:49:27;;;;;;;23.60;17.40;;;;;;;4.30;100.00;99583.91;5096623;28;20262;-31
2020/12/03 00:52:14;;;;;;;21.77;16.33;;;;;;;4.14;100.00;99582.13;5098276;28;20255;-31
2020/12/03 00:55:00;;;;;;;22.80;17.23;;;;;;;4.31;100.00;99588.19;5098636;28;20625;-31
2020/12/03 00:57:46;;;;;;;22.03;16.70;;;;;;;4.40;100.00;99577.13;5098239;28;20201;-31
2020/12/03 01:00:32;;;;;;;23.67;16.57;;;;;;;4.22;100.00;99577.88;5098655;28;20255;-31
2020/12/03 01:03:18;;;;;;;22.77;17.13;;;;;;;4.18;100.00;99568.50;5098158;28;20205;-31
2020/12/03 01:06:05;;;;;;;18.60;13.87;;;;;;;4.22;100.00;99570.19;5098475;28;20200;-30
2020/12/03 01:08:51;;;;;;;23.20;16.27;;;;;;;4.16;100.00;99565.06;5098382;28;20224;-31
2020/12/03 01:11:37;;;;;;;21.20;15.37;;;;;;;4.09;100.00;99558.19;5116087;28;20205;-30
2020/12/03 01:14:24;;;;;;;24.07;15.67;;;;;;;4.17;100.00;99553.13;5103007;28;20242;-30
2020/12/03 01:17:12;;;;;;;22.03;16.17;;;;;;;4.36;100.00;99549.81;5098777;28;20202;-31
2020/12/03 01:19:58;;;;;;;21.70;15.93;;;;;;;4.31;100.00;99546.38;5098655;28;20204;-31
2020/12/03 01:22:45;;;;;;;21.87;16.37;;;;;;;4.31;100.00;99543.81;5098788;28;20283;-30
2020/12/03 01:25:32;;;;;;;21.57;17.23;;;;;;;4.13;100.00;99534.34;5098616;28;20193;-31
2020/12/03 01:28:17;;;;;;;22.30;16.57;;;;;;;4.34;100.00;99531.88;5098602;28;20207;-30
2020/12/03 01:31:03;;;;;;;21.50;15.60;;;;;;;4.55;100.00;99523.44;5098243;28;20579;-31
2020/12/03 01:33:49;;;;;;;20.10;14.87;;;;;;;4.18;100.00;99530.09;5098541;28;20229;-31
2020/12/03 01:36:35;;;;;;;20.20;15.37;;;;;;;4.35;100.00;99519.94;5097701;28;20205;-31
2020/12/03 01:39:22;;;;;;;21.97;16.50;;;;;;;4.14;100.00;99518.13;5098080;28;20265;-30
2020/12/03 01:42:09;;;;;;;22.30;15.37;;;;;;;4.07;100.00;99509.56;5098357;28;20595;-30
2020/12/03 01:44:56;;;;;;;21.53;15.50;;;;;;;4.17;100.00;99507.91;5098028;28;20302;-31
2020/12/03 01:47:43;;;;;;;20.30;15.40;;;;;;;4.25;100.00;99513.91;5098256;28;20196;-30
2020/12/03 01:50:29;;;;;;;24.03;17.37;;;;;;;4.31;100.00;99507.97;5097992;28;20204;-30
2020/12/03 01:53:19;;;;;;;20.93;15.37;;;;;;;4.33;100.00;99502.00;5097863;28;20523;-31
2020/12/03 01:56:19;;;;;;;19.67;14.57;;;;;;;4.21;100.00;99494.25;5098051;28;20283;-31
2020/12/03 01:59:06;;;;;;;20.43;14.77;;;;;;;4.10;100.00;99486.56;5098670;28;20200;-30
2020/12/03 02:01:53;;;;;;;23.50;15.70;;;;;;;4.61;100.00;99486.72;5101982;28;20292;-30
2020/12/03 02:04:39;;;;;;;21.47;16.03;;;;;;;4.34;100.00;99485.81;5102265;28;20251;-31
2020/12/03 02:07:24;;;;;;;21.63;15.93;;;;;;;4.20;100.00;99476.38;5102130;28;20205;-30
2020/12/03 02:10:11;;;;;;;19.77;14.70;;;;;;;4.16;100.00;99483.19;5100773;28;20197;-30
2020/12/03 02:12:58;;;;;;;21.67;15.90;;;;;;;4.34;100.00;99475.56;5101016;28;20213;-30
2020/12/03 02:15:44;;;;;;;19.73;14.67;;;;;;;4.25;100.00;99475.50;5101218;28;20193;-30
2020/12/03 02:53:01;;;;;;;27.63;18.27;;;;;;;4.11;100.00;99395.28;4940817;29;20565;-33
2020/12/03 02:55:48;;;;;;;26.77;18.20;;;;;;;3.94;100.00;99397.78;4940116;29;20616;-37
2020/12/03 02:58:34;;;;;;;23.33;17.53;;;;;;;3.84;100.00;99390.91;4941625;29;20619;-35
2020/12/03 03:01:19;;;;;;;23.70;17.77;;;;;;;4.13;100.00;99381.66;4941681;29;20310;-35
2020/12/03 03:04:05;;;;;;;26.73;18.43;;;;;;;4.06;100.00;99379.06;4942093;29;20202;-39
2020/12/03 03:06:51;;;;;;;27.47;19.07;;;;;;;4.25;100.00;99369.72;4941743;29;20354;-33
2020/12/03 03:09:38;;;;;;;25.80;19.53;;;;;;;4.37;100.00;99375.75;4940860;29;20216;-34
2020/12/03 03:12:24;;;;;;;24.73;17.73;;;;;;;4.03;100.00;99366.25;4940581;29;20207;-36
2020/12/03 03:15:09;;;;;;;24.73;18.33;;;;;;;3.96;100.00;99359.44;4941630;29;20310;-34
2020/12/03 03:17:55;;;;;;;29.07;20.13;;;;;;;3.96;100.00;99355.16;4941302;29;20265;-34
2020/12/03 03:20:40;;;;;;;25.43;18.70;;;;;;;4.24;100.00;99356.06;4941162;29;20488;-36
2020/12/03 03:23:26;;;;;;;30.17;19.63;;;;;;;4.24;100.00;99347.53;4941459;29;20207;-34
2020/12/03 03:26:13;;;;;;;27.87;19.50;;;;;;;4.28;100.00;99356.94;4941097;29;20206;-38
2020/12/03 03:28:59;;;;;;;25.90;18.00;;;;;;;4.18;100.00;99350.97;4940452;29;20202;-36
2020/12/03 03:31:44;;;;;;;25.50;17.73;;;;;;;4.05;100.00;99350.06;4941447;29;20207;-36
2020/12/03 03:34:30;;;;;;;29.23;20.00;;;;;;;4.25;100.00;99347.53;4941136;29;20242;-33
2020/12/03 03:37:16;;;;;;;24.87;18.10;;;;;;;4.26;100.00;99348.41;4940820;29;20197;-36
2020/12/03 03:40:04;;;;;;;26.10;18.60;;;;;;;4.20;100.00;99343.28;4941322;29;20262;-35
2020/12/03 03:42:51;;;;;;;28.07;19.63;;;;;;;4.28;100.00;99341.56;4940733;29;20226;-36
2020/12/03 03:45:36;;;;;;;26.20;16.87;;;;;;;4.11;100.00;99328.75;4940624;29;20204;-34
2020/12/03 03:48:22;;;;;;;26.40;18.93;;;;;;;4.21;100.00;99325.34;4940535;29;20233;-36
2020/12/03 03:51:08;;;;;;;26.87;18.23;;;;;;;4.27;100.00;99333.03;4940875;29;20215;-35
2020/12/03 03:53:53;;;;;;;28.90;19.73;;;;;;;4.36;100.00;99325.38;4940762;29;20230;-33
2020/12/03 03:56:39;;;;;;;28.97;18.70;;;;;;;4.19;100.00;99324.53;4941174;29;20201;-35
2020/12/03 03:59:26;;;;;;;26.83;18.53;;;;;;;4.21;100.00;99324.50;4940495;29;20299;-36
2020/12/03 04:02:13;;;;;;;23.50;18.37;;;;;;;4.46;100.00;99326.22;4940225;29;20207;-38
2020/12/03 04:04:59;;;;;;;26.73;17.43;;;;;;;4.28;100.00;99318.53;4940275;29;20309;-35
2020/12/03 04:07:45;;;;;;;26.17;17.50;;;;;;;4.21;100.00;99315.09;4940790;29;20596;-37
2020/12/03 04:10:31;;;;;;;24.40;17.80;;;;;;;4.25;100.00;99305.72;4940585;29;20323;-39
2020/12/03 04:13:18;;;;;;;25.93;16.57;;;;;;;4.13;100.00;99298.91;4940318;29;20295;-36
2020/12/03 04:16:05;;;;;;;24.10;16.83;;;;;;;4.19;100.00;99292.94;4940844;29;20286;-33
2020/12/03 04:18:50;;;;;;;26.03;17.67;;;;;;;4.17;100.00;99285.28;4940036;29;20594;-33
2020/12/03 04:21:37;;;;;;;26.27;18.37;;;;;;;4.30;100.00;99294.66;4940484;29;20201;-36
2020/12/03 04:24:23;;;;;;;23.70;16.80;;;;;;;4.22;100.00;99285.25;4939869;29;20222;-34
2020/12/03 04:27:09;;;;;;;24.13;17.03;;;;;;;4.26;100.00;99282.69;4939670;29;20223;-35
2020/12/03 04:29:54;;;;;;;24.40;18.00;;;;;;;4.28;100.00;99281.00;4939646;29;20486;-35
2020/12/03 04:32:40;;;;;;;24.07;17.43;;;;;;;4.40;100.00;99273.31;4939932;29;20197;-37
2020/12/03 04:35:26;;;;;;;26.60;17.57;;;;;;;4.49;100.00;99268.19;4940100;29;20563;-36
2020/12/03 04:38:11;;;;;;;23.43;17.40;;;;;;;4.57;100.00;99265.66;4939764;29;20202;-35
2020/12/03 04:40:59;;;;;;;23.77;16.47;;;;;;;4.57;100.00;99262.22;4939811;29;20203;-32
2020/12/03 04:43:49;;;;;;;24.10;17.10;;;;;;;4.45;100.00;99270.75;4939752;29;20211;-36
2020/12/03 04:46:39;;;;;;;26.07;17.30;;;;;;;4.50;100.00;99263.94;4939703;29;20241;-34
2020/12/03 04:49:31;;;;;;;24.53;16.70;;;;;;;4.50;100.00;99261.38;4939881;29;20197;-36
2020/12/03 04:52:54;;;;;;;24.63;16.40;;;;;;;4.38;100.00;99254.56;4939748;29;20202;-34
2020/12/03 04:55:54;;;;;;;25.70;15.90;;;;;;;4.40;100.00;99257.94;4939214;29;20253;-36
2020/12/03 04:58:48;;;;;;;21.97;16.23;;;;;;;4.55;100.00;99243.44;4940035;29;20205;-36
2020/12/03 05:01:54;;;;;;;22.10;17.10;;;;;;;4.39;100.00;99250.28;4939508;29;20282;-32
2020/12/03 05:04:53;;;;;;;23.50;16.20;;;;;;;4.42;100.00;99250.28;4938661;29;20203;-33
2020/12/03 05:07:40;;;;;;;26.67;16.93;;;;;;;4.09;100.00;99251.13;4939889;29;20208;-33
2020/12/03 05:10:34;;;;;;;29.23;18.70;;;;;;;4.00;100.00;99240.88;4938868;29;20200;-35
2020/12/03 05:13:23;;;;;;;27.00;17.93;;;;;;;4.08;100.00;99244.31;4936693;29;20218;-37
2020/12/03 05:16:15;;;;;;;28.93;17.77;;;;;;;3.78;100.00;99238.31;4939055;29;20304;-36
2020/12/03 05:19:03;;;;;;;29.43;17.63;;;;;;;3.98;100.00;99229.81;4940021;29;20641;-46
2020/12/03 05:21:50;;;;;;;33.60;19.40;;;;;;;4.06;100.00;99228.94;4939758;29;20196;-34
2020/12/03 05:24:36;;;;;;;35.63;20.13;;;;;;;4.07;100.00;99224.69;4939381;29;20615;-36
2020/12/03 05:27:27;;;;;;;30.37;19.80;;;;;;;4.18;100.00;99211.91;4939583;29;20209;-34
2020/12/03 05:30:12;;;;;;;31.07;19.03;;;;;;;3.76;100.00;99213.59;4939260;29;20209;-35
2020/12/03 05:32:58;;;;;;;29.73;17.60;;;;;;;3.68;100.00;99205.91;4939384;29;20644;-38
2020/12/03 05:35:44;;;;;;;29.27;19.10;;;;;;;3.74;100.00;99199.94;4942204;29;20553;-34
2020/12/03 05:38:30;;;;;;;35.00;20.43;;;;;;;4.01;100.00;99193.97;4942974;29;20297;-33
2020/12/03 05:41:17;;;;;;;29.23;18.27;;;;;;;3.86;100.00;99186.31;4942240;29;20205;-32
2020/12/03 05:44:34;;;;;;;31.00;18.57;;;;;;;3.99;100.00;99188.03;4941130;29;20597;-33
2020/12/03 05:47:23;;;;;;;29.30;18.40;;;;;;;3.78;100.00;99183.75;4942856;29;20243;-33
2020/12/03 05:50:15;;;;;;;26.10;17.80;;;;;;;3.81;100.00;99186.28;4943274;29;20654;-32
2020/12/03 05:53:03;;;;;;;25.97;16.57;;;;;;;3.86;100.00;99181.19;4942338;29;20206;-35
2020/12/03 05:55:50;;;;;;;28.00;18.37;;;;;;;3.95;100.00;99182.06;4942336;29;20221;-34
2020/12/03 05:58:35;;;;;;;27.63;18.53;;;;;;;3.91;100.00;99176.94;4942549;29;20483;-34
2020/12/03 06:01:23;;;;;;;24.60;17.67;;;;;;;4.03;100.00;99182.88;4941949;29;20197;-33
2020/12/03 06:04:23;;;;;;;21.97;15.10;;;;;;;3.90;100.00;99177.78;4942449;29;20258;-34
2020/12/03 06:07:42;;;;;;;24.10;16.47;;;;;;;3.87;100.00;99173.50;4942548;29;20211;-35
2020/12/03 06:10:53;;;;;;;25.53;16.10;;;;;;;4.03;100.00;99169.25;4941555;29;20578;-35
2020/12/03 06:13:51;;;;;;;23.90;15.23;;;;;;;4.17;100.00;99179.50;4942273;29;20203;-35
2020/12/03 06:16:42;;;;;;;19.87;14.43;;;;;;;4.00;100.00;99164.97;4942181;29;20354;-36
2020/12/03 06:19:46;;;;;;;22.97;15.27;;;;;;;4.12;100.00;99169.25;4941917;29;20202;-39
2020/12/03 06:22:46;;;;;;;22.13;14.57;;;;;;;4.18;100.00;99160.72;4942261;29;20596;-36
2020/12/03 06:25:42;;;;;;;20.50;13.93;;;;;;;4.20;100.00;99162.41;4941343;29;20262;-37
2020/12/03 06:28:49;;;;;;;20.40;14.47;;;;;;;4.00;100.00;99152.19;4941553;29;20343;-38
2020/12/03 06:32:00;;;;;;;23.13;14.63;;;;;;;4.24;100.00;99164.09;4941303;29;20491;-34
2020/12/03 06:34:55;;;;;;;23.80;15.77;;;;;;;3.99;100.00;99157.34;4941976;29;20302;-37
2020/12/03 06:37:50;;;;;;;18.23;12.93;;;;;;;4.03;100.00;99154.75;4941831;29;20258;-35
2020/12/03 06:40:39;;;;;;;20.30;13.83;;;;;;;4.08;100.00;99144.50;4942189;29;20484;-33
2020/12/03 06:43:32;;;;;;;18.63;13.27;;;;;;;4.14;100.00;99129.16;4941464;29;20624;-34
2020/12/03 06:47:04;;;;;;;18.10;13.53;;;;;;;4.21;100.00;99128.28;4939964;29;20203;-40
2020/12/03 06:50:24;;;;;;;18.43;12.87;;;;;;;4.24;100.00;99117.19;4941196;29;20354;-39
2020/12/03 06:53:55;;;;;;;16.07;12.10;;;;;;;4.18;100.00;99112.09;4941112;29;20205;-35
2020/12/03 06:57:26;;;;;;;17.67;12.60;;;;;;;4.29;100.00;99103.53;4914854;29;20506;-38
2020/12/03 07:00:57;;;;;;;19.23;12.77;;;;;;;4.10;100.00;99092.50;4940074;29;20493;-36
2020/12/03 07:04:22;;;;;;;18.60;12.60;;;;;;;4.14;100.00;99091.63;4906740;29;20213;-33
2020/12/03 07:07:59;;;;;;;16.37;11.50;;;;;;;4.03;100.00;99090.78;4941480;29;20224;-33
2020/12/03 07:11:40;;;;;;;17.23;12.93;;;;;;;4.01;100.00;99091.63;4885153;29;20302;-38
2020/12/03 07:15:14;;;;;;;18.90;13.67;;;;;;;4.10;100.00;99079.69;4941611;29;20229;-33
2020/12/03 07:18:24;;;;;;;23.43;17.93;;;;;;;4.04;100.00;99081.41;4940797;29;20293;-37
2020/12/03 07:21:49;;;;;;;16.03;12.50;;;;;;;4.16;100.00;99076.28;4940037;29;20205;-36
2020/12/03 07:24:36;;;;;;;15.53;11.37;;;;;;;4.14;100.00;99078.00;4940656;29;20489;-36
2020/12/03 07:27:54;;;;;;;16.70;12.20;;;;;;;4.05;100.00;99080.56;4940299;29;20206;-35
2020/12/03 07:30:53;;;;;;;18.03;11.27;;;;;;;4.15;100.00;99079.69;4940591;29;20294;-35
2020/12/03 07:33:56;;;;;;;14.90;11.30;;;;;;;4.07;100.00;99081.41;4939662;29;20200;-33
2020/12/03 07:36:51;;;;;;;16.37;10.97;;;;;;;3.97;100.00;99072.91;4939714;29;20356;-35
2020/12/03 07:39:37;;;;;;;19.17;11.83;;;;;;;3.90;100.00;99067.78;4940088;29;20604;-37
2020/12/03 07:42:23;;;;;;;16.20;11.43;;;;;;;3.93;100.00;99067.78;4939894;29;20596;-35
2020/12/03 07:45:32;;;;;;;14.37;10.83;;;;;;;3.94;100.00;99064.38;4940347;29;20495;-34
2020/12/03 07:48:22;;;;;;;14.60;11.17;;;;;;;3.76;100.00;99061.00;4939813;29;20535;-33
2020/12/03 07:51:12;;;;;;;13.73;10.10;;;;;;;3.78;100.00;99061.84;4939663;29;20206;-34
2020/12/03 07:54:25;;;;;;;15.30;10.93;;;;;;;3.90;100.00;99055.00;4940342;29;20305;-33
2020/12/03 07:57:24;;;;;;;12.70;9.60;;;;;;;3.93;100.00;99060.13;4938976;29;20196;-37
2020/12/03 08:00:52;;;;;;;13.10;10.47;;;;;;;3.91;100.00;99054.16;4938897;29;20201;-36
2020/12/03 08:03:46;;;;;;;14.47;10.57;;;;;;;4.12;100.00;99051.56;4939206;29;20613;-39
2020/12/03 08:06:37;;;;;;;13.13;9.87;;;;;;;4.01;100.00;99050.72;4939303;29;20201;-36
2020/12/03 08:09:25;;;;;;;13.10;9.80;;;;;;;4.19;100.00;99042.16;4939866;29;20490;-34
2020/12/03 08:12:13;;;;;;;13.70;9.57;;;;;;;4.26;100.00;99046.38;4939081;29;20632;-35
2020/12/03 08:15:01;;;;;;;13.37;9.70;;;;;;;4.39;100.00;99045.50;4939362;29;20245;-37
2020/12/03 08:17:47;;;;;;;11.90;9.43;;;;;;;4.52;100.00;99054.81;4939364;29;20243;-38
2020/12/03 08:20:45;;;;;;;12.47;9.70;;;;;;;4.77;100.00;99046.19;4939197;29;20651;-33
2020/12/03 08:23:30;;;;;;;9.30;8.17;;;;;;;4.32;100.00;99046.38;4938385;29;20203;-34
2020/12/03 08:26:24;;;;;;;12.63;9.20;;;;;;;4.30;100.00;99045.53;4938536;29;20255;-35
2020/12/03 08:29:38;;;;;;;12.83;8.73;;;;;;;4.72;100.00;99040.22;4938485;29;20270;-35
2020/12/03 08:32:24;;;;;;;11.83;8.90;;;;;;;4.75;100.00;99034.22;4939222;29;20206;-36
2020/12/03 08:35:10;;;;;;;10.20;8.20;;;;;;;4.40;100.00;99034.38;4939215;29;20235;-37
2020/12/03 08:37:56;;;;;;;10.60;8.00;;;;;;;4.57;100.00;99019.81;4938967;29;20275;-36
2020/12/03 08:40:42;;;;;;;12.53;9.00;;;;;;;4.61;100.00;99018.06;4938603;29;20202;-37
2020/12/03 08:43:29;;;;;;;11.33;8.93;;;;;;;4.62;100.00;99014.66;4938915;29;20592;-35
2020/12/03 08:46:19;;;;;;;9.53;7.90;;;;;;;4.52;100.00;99010.44;4938277;29;20225;-35
2020/12/03 08:49:05;;;;;;;9.70;8.33;;;;;;;4.78;100.00;99008.59;4938834;29;20350;-33
2020/12/03 08:51:55;;;;;;;12.57;9.50;;;;;;;4.85;100.00;99003.41;4939340;29;20293;-36
2020/12/03 08:54:41;;;;;;;10.80;7.93;;;;;;;4.71;100.00;99005.22;4924247;29;20255;-33
2020/12/03 08:57:29;;;;;;;10.67;8.53;;;;;;;4.96;100.00;98988.00;4920287;29;20212;-37
2020/12/03 09:00:15;;;;;;;11.27;8.33;;;;;;;4.78;100.00;98988.13;4919807;29;20259;-33
2020/12/03 09:03:04;;;;;;;11.30;8.27;;;;;;;4.68;100.00;98987.31;4918634;29;20207;-37
2020/12/03 09:05:51;;;;;;;9.40;7.93;;;;;;;4.85;100.00;98985.47;4919410;29;20279;-37
2020/12/03 09:08:39;;;;;;;9.80;7.10;;;;;;;4.69;100.00;98981.31;4918498;29;20459;-33
2020/12/03 09:11:26;;;;;;;8.90;7.27;;;;;;;4.75;100.00;98988.97;4919182;29;20215;-34
2020/12/03 09:14:12;;;;;;;8.80;7.23;;;;;;;4.86;100.00;98978.66;4920294;29;20301;-33
2020/12/03 09:17:05;;;;;;;9.03;7.10;;;;;;;4.70;100.00;98977.06;4919609;29;20209;-35
2020/12/03 09:19:53;;;;;;;8.33;7.33;;;;;;;4.78;100.00;98975.31;4919720;29;20207;-36
2020/12/03 09:22:40;;;;;;;9.73;7.47;;;;;;;4.63;100.00;98975.38;4919898;29;20207;-35
2020/12/03 09:25:27;;;;;;;9.43;7.83;;;;;;;4.70;100.00;98970.22;4919414;29;20200;-35
2020/12/03 09:28:13;;;;;;;8.10;7.07;;;;;;;4.94;100.00;98976.91;4919898;29;20205;-35
2020/12/03 09:30:59;;;;;;;7.90;6.90;;;;;;;4.81;100.00;98970.13;4919931;29;20736;-33
2020/12/03 09:33:45;;;;;;;9.70;7.40;;;;;;;4.89;100.00;98968.38;4919379;29;20307;-36
2020/12/03 09:36:31;;;;;;;9.03;7.30;;;;;;;5.00;100.00;98966.56;4918587;29;20517;-38
2020/12/03 09:39:18;;;;;;;7.90;7.10;;;;;;;4.96;100.00;98956.38;4928405;29;20207;-38
2020/12/03 09:42:14;;;;;;;8.37;6.80;;;;;;;4.88;100.00;98955.59;4920335;29;20208;-34
2020/12/03 09:45:06;;;;;;;11.33;6.80;;;;;;;4.82;100.00;98951.34;4930648;29;20211;-37
2020/12/03 09:47:52;;;;;;;11.43;7.40;;;;;;;4.69;100.00;98942.06;4938904;29;20255;-37
2020/12/03 09:50:41;;;;;;;9.03;7.10;;;;;;;4.95;100.00;98940.16;4938737;29;20791;-33
2020/12/03 09:53:26;;;;;;;9.10;7.37;;;;;;;4.97;100.00;98946.13;4937828;29;20207;-35
2020/12/03 09:56:12;;;;;;;7.77;6.97;;;;;;;4.87;100.00;98938.50;4937586;29;20387;-34
2020/12/03 09:58:59;;;;;;;8.03;7.23;;;;;;;4.91;100.00;98928.22;4938128;29;20258;-37
2020/12/03 10:02:03;;;;;;;9.77;7.57;;;;;;;4.78;100.00;98921.50;4938016;29;20208;-36
2020/12/03 10:05:14;;;;;;;10.03;7.50;;;;;;;4.81;100.00;98918.91;4937749;29;20212;-37
2020/12/03 10:08:34;;;;;;;9.83;7.87;;;;;;;4.72;100.00;98904.47;4937115;29;20207;-33
2020/12/03 10:12:00;;;;;;;8.93;7.37;;;;;;;4.74;100.00;98895.06;4919632;29;20546;-37
2020/12/03 10:15:19;;;;;;;9.27;7.87;;;;;;;4.83;100.00;98884.72;4925563;29;20631;-37
2020/12/03 10:18:08;;;;;;;11.47;7.30;;;;;;;4.76;100.00;98882.25;4919399;29;20213;-37
2020/12/03 10:20:54;;;;;;;9.67;7.10;;;;;;;4.60;100.00;98876.38;4939974;29;20204;-36
2020/12/03 10:23:49;;;;;;;10.80;8.00;;;;;;;4.85;100.00;98861.66;4941945;29;20625;-37
2020/12/03 10:26:41;;;;;;;9.70;7.90;;;;;;;4.95;100.00;98865.00;4941883;29;20595;-37
2020/12/03 10:29:42;;;;;;;8.03;6.80;;;;;;;4.76;100.00;98854.94;4940189;29;20207;-38
2020/12/03 10:32:30;;;;;;;10.07;7.57;;;;;;;4.87;100.00;98856.53;4923036;29;20210;-37
2020/12/03 10:35:16;;;;;;;8.90;8.00;;;;;;;5.00;100.00;98853.84;4922710;29;20646;-36
2020/12/03 10:38:05;;;;;;;8.77;7.87;;;;;;;4.77;100.00;98846.38;4921683;29;20238;-37
2020/12/03 10:40:54;;;;;;;10.77;7.93;;;;;;;4.61;100.00;98846.50;4921433;29;20200;-33
2020/12/03 10:43:44;;;;;;;10.43;7.17;;;;;;;4.73;100.00;98837.00;4921751;29;20206;-36
2020/12/03 10:46:40;;;;;;;10.63;8.50;;;;;;;4.83;100.00;98842.88;4921758;29;20274;-34
2020/12/03 10:49:30;;;;;;;12.63;7.97;;;;;;;4.72;100.00;98821.66;4920387;29;20213;-36
2020/12/03 10:52:26;;;;;;;9.70;7.67;;;;;;;4.87;100.00;98805.28;4921196;29;20523;-35
2020/12/03 10:55:16;;;;;;;10.17;8.57;;;;;;;4.68;100.00;98814.84;4921549;29;20244;-34
2020/12/03 10:58:10;;;;;;;11.20;8.73;;;;;;;4.85;100.00;98805.31;4921784;29;20271;-35
2020/12/03 11:00:57;;;;;;;11.30;8.57;;;;;;;4.86;100.00;98801.88;4921925;29;20205;-35
2020/12/03 11:03:43;;;;;;;10.07;8.03;;;;;;;4.86;100.00;98804.44;4921568;29;20477;-34
2020/12/03 11:06:31;;;;;;;9.23;7.90;;;;;;;5.04;100.00;98794.00;4922064;29;20204;-34
2020/12/03 11:09:19;;;;;;;9.80;7.83;;;;;;;4.87;100.00;98784.81;4921847;29;20217;-37
2020/12/03 11:12:09;;;;;;;9.33;8.17;;;;;;;4.89;100.00;98785.63;4921270;29;20193;-35
2020/12/03 11:15:00;;;;;;;10.53;8.73;;;;;;;5.07;100.00;98777.75;4921106;29;20485;-37
2020/12/03 11:18:00;;;;;;;9.17;7.93;;;;;;;4.77;100.00;98786.63;4921701;29;20265;-35
2020/12/03 11:21:15;;;;;;;11.57;8.47;;;;;;;4.92;100.00;98778.78;4921524;29;20509;-34
2020/12/03 11:24:07;;;;;;;12.10;7.67;;;;;;;4.79;100.00;98769.53;4924692;29;20205;-36
2020/12/03 11:26:57;;;;;;;8.33;7.40;;;;;;;4.94;100.00;98769.38;4921676;29;20223;-36
2020/12/03 11:29:43;;;;;;;10.87;7.60;;;;;;;4.75;100.00;98760.16;4922033;29;20520;-35
2020/12/03 11:32:28;;;;;;;9.37;7.63;;;;;;;5.01;100.00;98762.44;4920542;29;20622;-35
2020/12/03 11:35:27;;;;;;;9.90;8.33;;;;;;;5.14;100.00;98759.75;4921436;29;20258;-35
2020/12/03 11:38:14;;;;;;;10.47;7.80;;;;;;;5.07;100.00;98741.88;4921354;29;20205;-38
2020/12/03 11:41:07;;;;;;;9.00;7.73;;;;;;;5.43;100.00;98732.88;4929156;29;20207;-36
2020/12/03 11:50:47;;;;;;;9.00;7.17;;;;;;;5.16;100.00;98696.50;4903621;29;20349;-36
2020/12/03 11:53:36;;;;;;;7.77;6.83;;;;;;;5.12;100.00;98694.00;4920840;29;20331;-36
2020/12/03 11:56:23;;;;;;;12.47;8.07;;;;;;;4.96;100.00;98688.22;4937517;29;20329;-39
2020/12/03 11:59:14;;;;;;;9.73;7.70;;;;;;;5.52;100.00;98692.59;4928420;29;20304;-35
2020/12/03 12:02:03;;;;;;;9.73;8.20;;;;;;;5.35;100.00;98679.16;4919766;29;20362;-35
2020/12/03 12:04:57;;;;;;;8.23;6.17;;;;;;;5.30;100.00;98667.25;4920077;29;20465;-35
2020/12/03 12:07:54;;;;;;;10.40;7.83;;;;;;;5.49;100.00;98659.28;4928232;29;20325;-35
2020/12/03 12:10:44;;;;;;;9.20;7.83;;;;;;;5.23;100.00;98656.25;4938075;29;20220;-36
2020/12/03 12:13:32;;;;;;;10.93;7.30;;;;;;;5.45;100.00;98646.53;4929181;29;20276;-35
2020/12/03 12:16:17;;;;;;;9.27;7.40;;;;;;;5.37;100.00;98640.69;4939637;29;20235;-37
2020/12/03 12:19:03;;;;;;;11.17;7.47;;;;;;;5.40;100.00;98633.78;4919879;29;20220;-35
2020/12/03 12:21:49;;;;;;;10.70;7.47;;;;;;;5.45;100.00;98638.84;4924392;29;20213;-37
2020/12/03 12:24:42;;;;;;;8.33;7.37;;;;;;;5.38;100.00;98629.56;4920871;29;20647;-34
2020/12/03 12:27:29;;;;;;;10.37;8.53;;;;;;;5.40;100.00;98614.97;4932280;29;20268;-36
2020/12/03 12:30:18;;;;;;;8.73;7.40;;;;;;;5.40;100.00;98609.84;4939730;29;20537;-37
2020/12/03 12:33:05;;;;;;;8.90;7.57;;;;;;;5.52;100.00;98612.25;4939553;29;20208;-35
2020/12/03 12:35:52;;;;;;;10.37;7.80;;;;;;;5.63;100.00;98600.09;4939354;29;20639;-34
2020/12/03 12:38:42;;;;;;;11.37;7.67;;;;;;;5.47;100.00;98598.66;4935072;29;20754;-36
2020/12/03 12:41:30;;;;;;;8.87;7.30;;;;;;;5.57;100.00;98592.50;4919665;29;20250;-34
2020/12/03 12:44:17;;;;;;;9.53;7.63;;;;;;;5.38;100.00;98588.53;4919445;29;20207;-34
2020/12/03 12:47:05;;;;;;;8.03;6.87;;;;;;;5.78;100.00;98592.16;4920308;29;20248;-36
2020/12/03 12:49:51;;;;;;;9.93;7.70;;;;;;;5.65;100.00;98590.66;4920048;29;20596;-35
2020/12/03 12:52:37;;;;;;;9.87;7.93;;;;;;;5.77;100.00;98577.66;4919748;29;20269;-38
2020/12/03 12:55:23;;;;;;;9.20;8.20;;;;;;;5.65;100.00;98585.53;4919743;29;20229;-34
2020/12/03 12:58:11;;;;;;;11.10;8.37;;;;;;;5.65;100.00;98579.56;4918896;29;20205;-35
2020/12/03 13:01:00;;;;;;;11.07;7.97;;;;;;;5.60;100.00;98573.63;4919824;29;20565;-37
2020/12/03 13:03:46;;;;;;;9.33;7.93;;;;;;;5.53;100.00;98568.63;4919869;29;20205;-35
2020/12/03 13:06:32;;;;;;;10.43;8.87;;;;;;;5.75;100.00;98555.44;4919899;29;20197;-35
2020/12/03 13:09:20;;;;;;;13.67;9.10;;;;;;;5.86;100.00;98551.81;4919104;29;20226;-35
2020/12/03 13:12:06;;;;;;;9.17;8.17;;;;;;;5.76;100.00;98547.72;4919980;29;20197;-34
2020/12/03 13:14:52;;;;;;;9.90;8.37;;;;;;;5.77;100.00;98539.16;4919898;29;20209;-35
2020/12/03 13:17:40;;;;;;;10.10;8.30;;;;;;;5.46;100.00;98543.94;4920092;29;20267;-34
2020/12/03 13:20:27;;;;;;;9.80;7.30;;;;;;;5.67;100.00;98531.63;4918609;29;20628;-35
2020/12/03 13:23:13;;;;;;;9.97;7.33;;;;;;;5.56;100.00;98526.72;4919502;29;20213;-35
2020/12/03 13:25:59;;;;;;;9.60;7.53;;;;;;;5.51;100.00;98507.97;4918997;29;20250;-36
2020/12/03 13:28:45;;;;;;;11.47;8.20;;;;;;;5.67;100.00;98508.56;4920016;29;20209;-35
2020/12/03 13:31:31;;;;;;;9.97;7.53;;;;;;;5.45;100.00;98501.22;4919852;29;20229;-36
2020/12/03 13:34:20;;;;;;;13.30;9.33;;;;;;;5.38;100.00;98493.69;4919384;29;20312;-35
2020/12/03 13:37:07;;;;;;;13.90;8.03;;;;;;;5.44;100.00;98489.28;4919583;29;20329;-33
2020/12/03 13:39:53;;;;;;;10.53;7.63;;;;;;;5.48;100.00;98479.81;4919451;29;20485;-34
2020/12/03 13:42:42;;;;;;;8.80;7.53;;;;;;;5.45;100.00;98469.63;4919550;29;20197;-35
2020/12/03 13:45:27;;;;;;;11.00;7.50;;;;;;;5.53;100.00;98465.22;4919946;29;20209;-33
2020/12/03 13:48:16;;;;;;;9.87;6.97;;;;;;;5.44;100.00;98462.78;4923384;29;20241;-38
2020/12/03 13:51:04;;;;;;;10.37;7.77;;;;;;;5.42;100.00;98454.28;4920004;29;20201;-38
2020/12/03 13:53:56;;;;;;;9.43;7.27;;;;;;;5.56;100.00;98454.06;4920407;29;20205;-34
2020/12/03 13:56:44;;;;;;;9.20;7.07;;;;;;;5.46;100.00;98446.50;4922337;29;20233;-36